createdAt,value
2023-05-12T00:01:31.850Z,71.50
2023-05-12T00:03:58.690Z,71.50
2023-05-12T00:06:26.092Z,71.90
2023-05-12T00:08:52.745Z,71.70
2023-05-12T00:11:19.397Z,71.40
2023-05-12T00:13:46.141Z,71.80
2023-05-12T00:16:13.354Z,71.80
2023-05-12T00:18:39.989Z,71.80
2023-05-12T00:21:08.642Z,71.50
2023-05-12T00:23:35.292Z,71.40
2023-05-12T00:26:01.955Z,71.50
2023-05-12T00:28:28.597Z,71.70
2023-05-12T00:30:55.841Z,71.50
2023-05-12T00:33:22.548Z,71.40
2023-05-12T00:35:49.173Z,71.10
2023-05-12T00:38:15.774Z,71.20
2023-05-12T00:40:42.420Z,71.00
2023-05-12T00:43:09.094Z,71.20
2023-05-12T00:45:36.633Z,70.70
2023-05-12T00:48:05.373Z,70.90
2023-05-12T00:50:32.328Z,71.20
2023-05-12T00:53:00.894Z,70.70
2023-05-12T00:55:29.433Z,71.00
2023-05-12T00:57:56.286Z,70.80
2023-05-12T01:00:23.017Z,70.90
2023-05-12T01:02:49.867Z,71.20
2023-05-12T01:05:16.525Z,70.90
2023-05-12T01:07:44.325Z,70.70
2023-05-12T01:10:21.464Z,70.70
2023-05-12T01:12:48.521Z,70.80
2023-05-12T01:15:15.701Z,70.80
2023-05-12T01:17:51.701Z,70.50
2023-05-12T01:20:20.970Z,70.90
2023-05-12T01:22:49.080Z,70.50
2023-05-12T01:25:17.191Z,70.60
2023-05-12T01:27:45.191Z,70.50
2023-05-12T01:30:14.057Z,71.00
2023-05-12T01:32:40.763Z,70.90
2023-05-12T01:35:07.808Z,71.00
2023-05-12T01:37:34.523Z,71.00
2023-05-12T01:40:01.189Z,70.70
2023-05-12T01:42:27.992Z,70.70
2023-05-12T01:44:54.696Z,70.50
2023-05-12T01:47:21.622Z,70.70
2023-05-12T01:49:48.408Z,70.30
2023-05-12T01:52:15.226Z,70.40
2023-05-12T01:54:41.834Z,70.60
2023-05-12T01:57:08.425Z,70.60
2023-05-12T01:59:35.038Z,70.30
2023-05-12T02:02:01.710Z,70.30
2023-05-12T02:04:28.408Z,70.70
2023-05-12T02:06:55.057Z,71.10
2023-05-12T02:09:22.827Z,70.40
2023-05-12T02:11:49.584Z,70.30
2023-05-12T02:14:16.266Z,70.20
2023-05-12T02:16:43.081Z,70.50
2023-05-12T02:19:09.796Z,70.30
2023-05-12T02:21:36.593Z,70.10
2023-05-12T02:24:03.337Z,70.20
2023-05-12T02:26:29.982Z,70.40
2023-05-12T02:28:56.673Z,70.30
2023-05-12T02:31:23.345Z,70.40
2023-05-12T02:33:51.552Z,70.30
2023-05-12T02:36:18.207Z,70.30
2023-05-12T02:38:44.803Z,70.40
2023-05-12T02:41:11.574Z,70.40
2023-05-12T02:43:38.229Z,70.30
2023-05-12T02:46:04.962Z,70.30
2023-05-12T02:48:31.588Z,70.30
2023-05-12T02:50:58.167Z,70.30
2023-05-12T02:53:24.898Z,70.30
2023-05-12T02:55:51.526Z,70.40
2023-05-12T02:58:18.170Z,70.40
2023-05-12T03:00:44.760Z,70.40
2023-05-12T03:03:11.553Z,70.20
2023-05-12T03:05:38.340Z,70.20
2023-05-12T03:08:05.343Z,70.30
2023-05-12T03:10:31.990Z,70.30
2023-05-12T03:12:58.637Z,71.00
2023-05-12T03:15:25.222Z,70.40
2023-05-12T03:17:51.919Z,70.10
2023-05-12T03:20:19.044Z,70.40
2023-05-12T03:22:46.159Z,70.10
2023-05-12T03:25:12.797Z,70.10
2023-05-12T03:27:39.944Z,70.20
2023-05-12T03:30:07.263Z,70.20
2023-05-12T03:32:33.992Z,70.00
2023-05-12T03:35:00.626Z,70.10
2023-05-12T03:37:27.197Z,70.20
2023-05-12T03:39:56.046Z,70.20
2023-05-12T03:42:24.006Z,70.40
2023-05-12T03:44:51.725Z,70.30
2023-05-12T03:47:18.363Z,70.30
2023-05-12T03:49:45.001Z,70.10
2023-05-12T03:52:12.519Z,70.00
2023-05-12T03:54:39.128Z,70.20
2023-05-12T03:57:06.156Z,70.10
2023-05-12T03:59:33.101Z,70.30
2023-05-12T04:01:59.749Z,70.10
2023-05-12T04:04:26.503Z,70.10
2023-05-12T04:06:53.201Z,70.20
2023-05-12T04:09:21.223Z,70.10
2023-05-12T04:11:47.847Z,70.10
2023-05-12T04:14:14.446Z,70.10
2023-05-12T04:16:41.380Z,70.10
2023-05-12T04:19:08.221Z,70.10
2023-05-12T04:21:34.879Z,70.10
2023-05-12T04:24:01.472Z,70.20
2023-05-12T04:26:28.091Z,70.00
2023-05-12T04:28:54.728Z,70.00
2023-05-12T04:31:21.644Z,70.20
2023-05-12T04:33:48.604Z,70.10
2023-05-12T04:36:15.514Z,70.00
2023-05-12T04:38:42.147Z,70.10
2023-05-12T04:41:09.185Z,70.10
2023-05-12T04:46:05.666Z,70.10
2023-05-12T04:48:32.414Z,70.10
2023-05-12T04:51:00.345Z,70.10
2023-05-12T04:53:34.426Z,70.10
2023-05-12T04:56:01.613Z,70.00
2023-05-12T04:58:28.343Z,70.10
2023-05-12T05:00:55.101Z,70.20
2023-05-12T05:03:21.901Z,70.00
2023-05-12T05:05:49.138Z,69.90
2023-05-12T05:08:15.782Z,70.00
2023-05-12T05:10:42.574Z,70.00
2023-05-12T05:13:09.179Z,70.00
2023-05-12T05:15:35.877Z,70.00
2023-05-12T05:18:02.596Z,70.00
2023-05-12T05:20:29.527Z,70.10
2023-05-12T05:22:56.324Z,70.00
2023-05-12T05:25:22.992Z,70.00
2023-05-12T05:27:49.684Z,70.00
2023-05-12T05:30:16.681Z,69.80
2023-05-12T05:32:43.412Z,69.80
2023-05-12T05:35:10.248Z,69.90
2023-05-12T05:37:37.059Z,70.00
2023-05-12T05:40:04.768Z,69.90
2023-05-12T05:42:31.490Z,70.00
2023-05-12T05:44:58.176Z,70.00
2023-05-12T05:47:24.859Z,69.90
2023-05-12T05:49:51.536Z,70.00
2023-05-12T05:52:18.782Z,70.00
2023-05-12T05:54:45.796Z,70.00
2023-05-12T05:57:12.375Z,70.00
2023-05-12T05:59:39.028Z,70.00
2023-05-12T06:02:05.867Z,69.90
2023-05-12T06:04:32.592Z,69.90
2023-05-12T06:06:59.237Z,70.00
2023-05-12T06:09:25.929Z,69.90
2023-05-12T06:11:52.546Z,70.00
2023-05-12T06:14:19.168Z,70.10
2023-05-12T06:16:45.824Z,69.90
2023-05-12T06:19:12.645Z,70.00
2023-05-12T06:21:39.544Z,70.00
2023-05-12T06:24:06.460Z,69.90
2023-05-12T06:26:33.492Z,69.90
2023-05-12T06:29:00.180Z,69.80
2023-05-12T06:31:26.908Z,69.90
2023-05-12T06:33:53.590Z,69.90
2023-05-12T06:36:20.473Z,69.90
2023-05-12T06:38:47.243Z,69.90
2023-05-12T06:41:13.916Z,69.90
2023-05-12T06:43:40.552Z,69.80
2023-05-12T06:46:08.523Z,69.80
2023-05-12T06:48:35.327Z,70.60
2023-05-12T06:51:02.023Z,69.90
2023-05-12T06:53:28.981Z,70.00
2023-05-12T06:55:55.647Z,69.80
2023-05-12T06:58:22.301Z,69.80
2023-05-12T07:00:48.985Z,69.90
2023-05-12T07:03:15.877Z,69.80
2023-05-12T07:05:42.721Z,69.70
2023-05-12T07:08:09.363Z,69.70
2023-05-12T07:10:36.201Z,69.90
2023-05-12T07:13:02.816Z,69.80
2023-05-12T07:15:32.493Z,69.70
2023-05-12T07:17:59.520Z,69.80
2023-05-12T07:20:26.318Z,69.80
2023-05-12T07:22:54.618Z,69.80
2023-05-12T07:25:21.888Z,69.70
2023-05-12T07:27:49.865Z,69.80
2023-05-12T07:30:17.310Z,69.80
2023-05-12T07:32:44.325Z,69.80
2023-05-12T07:35:11.047Z,69.70
2023-05-12T07:37:38.205Z,69.70
2023-05-12T07:40:05.860Z,69.60
2023-05-12T07:42:32.689Z,69.80
2023-05-12T07:44:59.648Z,69.60
2023-05-12T07:47:26.658Z,69.70
2023-05-12T07:49:53.403Z,69.60
2023-05-12T07:52:20.087Z,69.70
2023-05-12T07:54:46.956Z,69.80
2023-05-12T07:57:13.625Z,69.70
2023-05-12T07:59:40.571Z,69.60
2023-05-12T08:02:08.433Z,69.80
2023-05-12T08:04:35.328Z,69.70
2023-05-12T08:07:02.088Z,69.70
2023-05-12T08:09:28.713Z,69.70
2023-05-12T08:11:55.339Z,69.70
2023-05-12T08:14:22.597Z,69.70
2023-05-12T08:16:49.400Z,69.80
2023-05-12T08:19:16.240Z,69.80
2023-05-12T08:21:42.905Z,69.70
2023-05-12T08:24:09.594Z,69.90
2023-05-12T08:26:36.224Z,69.80
2023-05-12T08:29:04.932Z,69.60
2023-05-12T08:31:32.404Z,69.80
2023-05-12T08:34:09.166Z,69.60
2023-05-12T08:36:37.383Z,69.60
2023-05-12T08:39:04.287Z,69.60
2023-05-12T08:42:11.180Z,69.60
2023-05-12T08:44:38.275Z,69.60
2023-05-12T08:47:06.553Z,69.70
2023-05-12T08:49:36.353Z,69.60
2023-05-12T08:52:03.705Z,69.70
2023-05-12T08:54:30.850Z,69.80
2023-05-12T08:59:27.926Z,70.50
2023-05-12T09:01:55.334Z,69.60
2023-05-12T09:04:22.317Z,69.80
2023-05-12T09:06:49.194Z,69.60
2023-05-12T09:09:17.501Z,69.60
2023-05-12T09:11:45.022Z,69.60
2023-05-12T09:14:19.201Z,69.50
2023-05-12T09:16:50.701Z,69.60
2023-05-12T09:19:21.403Z,69.50
2023-05-12T09:21:48.889Z,69.60
2023-05-12T09:24:15.786Z,69.60
2023-05-12T09:26:47.804Z,69.60
2023-05-12T09:29:24.105Z,69.60
2023-05-12T09:31:58.311Z,69.50
2023-05-12T09:34:30.973Z,69.60
2023-05-12T09:37:03.932Z,69.50
2023-05-12T09:39:30.617Z,69.50
2023-05-12T09:41:57.752Z,69.50
2023-05-12T09:44:25.734Z,69.40
2023-05-12T09:46:53.009Z,69.50
2023-05-12T09:49:26.323Z,69.50
2023-05-12T09:51:55.860Z,69.40
2023-05-12T09:54:30.456Z,69.50
2023-05-12T09:56:59.140Z,69.50
2023-05-12T09:59:31.456Z,69.40
2023-05-12T10:02:00.863Z,69.50
2023-05-12T10:04:39.730Z,69.40
2023-05-12T10:07:10.079Z,69.50
2023-05-12T10:09:39.375Z,69.50
2023-05-12T10:12:06.419Z,69.30
2023-05-12T10:14:34.349Z,69.50
2023-05-12T10:17:01.959Z,69.30
2023-05-12T10:19:32.562Z,69.30
2023-05-12T10:22:00.384Z,69.30
2023-05-12T10:24:28.054Z,69.40
2023-05-12T10:26:56.509Z,69.40
2023-05-12T10:29:29.957Z,69.30
2023-05-12T10:31:57.866Z,69.40
2023-05-12T10:34:30.347Z,69.30
2023-05-12T10:36:58.620Z,69.30
2023-05-12T10:39:32.905Z,69.30
2023-05-12T10:42:09.816Z,69.30
2023-05-12T10:44:47.678Z,69.30
2023-05-12T10:47:17.285Z,69.30
2023-05-12T10:49:43.958Z,69.40
2023-05-12T10:52:19.545Z,69.30
2023-05-12T10:54:47.605Z,69.30
2023-05-12T10:57:25.339Z,69.30
2023-05-12T10:59:56.905Z,69.30
2023-05-12T11:02:27.524Z,69.20
2023-05-12T11:04:59.697Z,69.20
2023-05-12T11:07:32.883Z,69.30
2023-05-12T11:10:01.880Z,69.30
2023-05-12T11:12:33.558Z,69.30
2023-05-12T11:15:01.953Z,69.30
2023-05-12T11:17:29.083Z,69.20
2023-05-12T11:19:56.364Z,69.10
2023-05-12T11:22:24.272Z,69.20
2023-05-12T11:24:52.391Z,69.30
2023-05-12T11:27:21.175Z,69.30
2023-05-12T11:29:59.740Z,69.10
2023-05-12T11:32:27.011Z,69.20
2023-05-12T11:34:53.764Z,69.10
2023-05-12T11:37:21.357Z,69.10
2023-05-12T11:39:48.485Z,69.10
2023-05-12T11:42:18.468Z,69.20
2023-05-12T11:44:50.418Z,69.20
2023-05-12T11:47:19.414Z,69.10
2023-05-12T11:49:51.586Z,69.00
2023-05-12T12:03:55.758Z,68.30
2023-05-12T12:06:23.120Z,69.10
2023-05-12T12:09:00.048Z,69.00
2023-05-12T12:11:28.237Z,69.00
2023-05-12T12:13:58.402Z,69.10
2023-05-12T12:16:26.185Z,69.00
2023-05-12T12:18:54.858Z,69.00
2023-05-12T12:21:23.618Z,69.00
2023-05-12T12:23:51.661Z,69.00
2023-05-12T12:26:21.035Z,69.00
2023-05-12T12:28:48.244Z,68.90
2023-05-12T12:31:16.158Z,68.90
2023-05-12T12:33:43.220Z,69.00
2023-05-12T12:36:10.038Z,69.00
2023-05-12T12:53:38.566Z,68.30
2023-05-12T12:56:31.925Z,68.90
2023-05-12T12:59:16.920Z,68.90
2023-05-12T13:02:21.803Z,68.90
2023-05-12T13:04:48.503Z,68.90
2023-05-12T13:07:18.585Z,68.90
2023-05-12T13:09:45.208Z,68.90
2023-05-12T13:12:11.983Z,68.90
2023-05-12T13:14:38.672Z,68.80
2023-05-12T13:17:05.422Z,68.80
2023-05-12T13:19:32.120Z,68.80
2023-05-12T13:21:58.749Z,68.70
2023-05-12T13:24:25.381Z,68.80
2023-05-12T13:26:52.164Z,68.70
2023-05-12T13:29:19.211Z,68.80
2023-05-12T13:31:46.467Z,68.70
2023-05-12T13:34:14.275Z,68.80
2023-05-12T13:36:40.842Z,68.70
2023-05-12T13:39:08.865Z,68.80
2023-05-12T13:41:35.792Z,68.80
2023-05-12T13:44:02.427Z,68.70
2023-05-12T13:46:29.140Z,68.70
2023-05-12T13:48:55.899Z,68.70
2023-05-12T13:51:23.165Z,68.80
2023-05-12T13:53:49.751Z,68.60
2023-05-12T13:56:19.056Z,68.70
2023-05-12T13:58:45.985Z,68.70
2023-05-12T14:01:12.740Z,68.60
2023-05-12T14:03:40.220Z,68.70
2023-05-12T14:06:06.845Z,68.60
2023-05-12T14:08:33.469Z,68.60
2023-05-12T14:11:00.275Z,68.60
2023-05-12T14:13:27.850Z,68.50
2023-05-12T14:15:54.620Z,68.60
2023-05-12T14:18:21.574Z,68.60
2023-05-12T14:20:48.271Z,68.50
2023-05-12T14:23:14.884Z,68.60
2023-05-12T14:25:41.483Z,68.60
2023-05-12T14:28:08.476Z,68.50
2023-05-12T14:30:35.336Z,68.50
2023-05-12T14:33:03.358Z,68.60
2023-05-12T14:35:30.527Z,68.50
2023-05-12T14:37:57.796Z,69.10
2023-05-12T14:40:24.927Z,68.60
2023-05-12T14:42:52.386Z,68.40
2023-05-12T14:45:19.476Z,68.40
2023-05-12T14:47:46.283Z,68.40
2023-05-12T14:50:13.601Z,68.40
2023-05-12T14:52:40.244Z,68.40
2023-05-12T14:55:14.662Z,68.40
2023-05-12T14:57:42.212Z,68.50
2023-05-12T15:00:13.035Z,68.40
2023-05-12T15:02:41.714Z,68.40
2023-05-12T15:05:09.815Z,68.50
2023-05-12T15:07:37.012Z,68.40
2023-05-12T15:10:04.563Z,68.40
2023-05-12T15:12:31.646Z,68.40
2023-05-12T15:15:01.128Z,68.40
2023-05-12T15:17:28.340Z,68.40
2023-05-12T15:19:55.790Z,68.40
2023-05-12T15:22:22.618Z,68.40
2023-05-12T15:24:49.263Z,68.40
2023-05-12T15:27:15.872Z,68.30
2023-05-12T15:29:42.630Z,68.40
2023-05-12T15:32:09.328Z,68.30
2023-05-12T15:34:36.076Z,68.40
2023-05-12T15:37:02.714Z,68.30
2023-05-12T15:39:29.326Z,68.40
2023-05-12T15:41:56.292Z,68.30
2023-05-12T15:44:23.074Z,68.40
2023-05-12T15:46:49.739Z,68.40
2023-05-12T15:49:16.418Z,68.30
2023-05-12T15:51:43.021Z,68.30
2023-05-12T15:54:09.901Z,68.30
2023-05-12T15:56:37.325Z,68.30
2023-05-12T15:59:05.130Z,68.30
2023-05-12T16:01:32.098Z,68.30
2023-05-12T16:03:59.073Z,68.30
2023-05-12T16:06:25.933Z,68.30
2023-05-12T16:08:53.131Z,68.30
2023-05-12T16:11:19.920Z,68.30
2023-05-12T16:13:46.891Z,68.30
2023-05-12T16:16:13.622Z,68.20
2023-05-12T16:18:40.328Z,68.20
2023-05-12T16:21:08.173Z,68.20
2023-05-12T16:23:34.869Z,68.10
2023-05-12T16:26:01.500Z,68.20
2023-05-12T16:28:28.179Z,68.20
2023-05-12T16:30:54.853Z,68.90
2023-05-12T16:33:21.500Z,68.20
2023-05-12T16:35:48.147Z,68.10
2023-05-12T16:38:14.782Z,68.10
2023-05-12T16:40:41.491Z,68.10
2023-05-12T16:43:08.080Z,68.10
2023-05-12T16:45:34.828Z,68.10
2023-05-12T16:48:01.485Z,68.10
2023-05-12T16:50:28.102Z,68.10
2023-05-12T16:52:54.766Z,68.10
2023-05-12T16:55:21.721Z,68.10
2023-05-12T16:57:48.557Z,68.10
2023-05-12T17:00:16.028Z,68.00
2023-05-12T17:02:42.808Z,68.10
2023-05-12T17:05:09.736Z,68.10
2023-05-12T17:07:36.427Z,68.00
2023-05-12T17:10:03.490Z,68.00
2023-05-12T17:12:30.067Z,68.00
2023-05-12T17:15:06.855Z,68.00
2023-05-12T17:17:34.866Z,68.00
2023-05-12T17:20:02.294Z,68.00
2023-05-12T17:22:29.086Z,67.90
2023-05-12T17:24:55.766Z,68.00
2023-05-12T17:27:22.529Z,68.00
2023-05-12T17:29:49.265Z,68.00
2023-05-12T17:32:15.905Z,68.00
2023-05-12T17:34:42.452Z,68.00
2023-05-12T17:37:09.312Z,67.90
2023-05-12T17:39:37.985Z,67.90
2023-05-12T17:42:05.008Z,67.90
2023-05-12T17:44:31.696Z,68.00
2023-05-12T17:46:58.370Z,68.00
2023-05-12T17:49:24.964Z,68.00
2023-05-12T17:51:54.740Z,67.90
2023-05-12T17:54:21.396Z,68.00
2023-05-12T17:56:48.004Z,67.90
2023-05-12T17:59:14.879Z,68.00
2023-05-12T18:01:41.698Z,67.80
2023-05-12T18:04:08.492Z,67.90
2023-05-12T18:06:35.523Z,67.80
2023-05-12T18:09:02.673Z,67.90
2023-05-12T18:11:29.701Z,67.90
2023-05-12T18:13:56.506Z,68.00
2023-05-12T18:16:29.161Z,67.80
2023-05-12T18:18:57.260Z,67.90
2023-05-12T18:21:24.353Z,67.80
2023-05-12T18:23:51.168Z,67.80
2023-05-12T18:26:17.821Z,67.70
2023-05-12T18:28:44.469Z,67.80
2023-05-12T18:33:40.825Z,67.80
2023-05-12T18:36:07.642Z,67.80
2023-05-12T18:38:34.671Z,67.80
2023-05-12T18:41:01.266Z,67.80
2023-05-12T18:43:27.953Z,67.80
2023-05-12T18:45:54.530Z,67.70
2023-05-12T18:48:21.272Z,67.80
2023-05-12T18:50:48.796Z,67.70
2023-05-12T18:53:16.501Z,67.70
2023-05-12T18:55:43.215Z,67.70
2023-05-12T18:58:09.962Z,67.70
2023-05-12T19:00:36.670Z,67.70
2023-05-12T19:03:03.588Z,67.70
2023-05-12T19:05:30.750Z,67.70
2023-05-12T19:07:57.497Z,67.70
2023-05-12T19:10:24.169Z,67.70
2023-05-12T19:12:53.520Z,67.70
2023-05-12T19:15:21.586Z,67.60
2023-05-12T19:17:49.175Z,67.60
2023-05-12T19:20:15.916Z,67.50
2023-05-12T19:22:42.695Z,67.60
2023-05-12T19:25:09.577Z,67.60
2023-05-12T19:27:36.338Z,67.60
2023-05-12T19:30:05.008Z,67.60
2023-05-12T19:32:32.672Z,67.60
2023-05-12T19:35:00.825Z,67.70
2023-05-12T19:37:27.760Z,67.60
2023-05-12T19:39:54.353Z,67.60
2023-05-12T19:42:21.326Z,67.70
2023-05-12T19:44:47.899Z,67.70
2023-05-12T19:47:14.538Z,67.70
2023-05-12T19:49:41.599Z,67.70
2023-05-12T19:52:08.661Z,67.60
2023-05-12T19:54:36.029Z,67.60
2023-05-12T19:57:02.649Z,67.60
2023-05-12T19:59:29.312Z,67.50
2023-05-12T20:01:56.431Z,67.60
2023-05-12T20:04:23.488Z,67.50
2023-05-12T20:06:50.844Z,67.50
2023-05-12T20:09:20.430Z,67.50
2023-05-12T20:11:46.996Z,67.60
2023-05-12T20:14:13.712Z,67.60
2023-05-12T20:16:40.393Z,67.60
2023-05-12T20:19:07.093Z,67.50
2023-05-12T20:21:33.770Z,67.60
2023-05-12T20:24:00.854Z,67.40
2023-05-12T20:26:27.672Z,67.50
2023-05-12T20:28:54.336Z,67.40
2023-05-12T20:31:21.051Z,67.50
2023-05-12T20:33:47.882Z,67.40
2023-05-12T20:36:14.525Z,67.30
2023-05-12T20:38:41.377Z,67.40
2023-05-12T20:41:08.478Z,67.30
2023-05-12T20:43:35.152Z,67.20
2023-05-12T20:46:05.142Z,67.30
2023-05-12T20:48:32.742Z,67.20
2023-05-12T20:50:59.561Z,67.40
2023-05-12T20:53:26.228Z,67.40
2023-05-12T20:55:52.795Z,67.40
2023-05-12T20:58:19.413Z,67.40
2023-05-12T21:00:45.962Z,67.40
2023-05-12T21:03:16.809Z,67.40
2023-05-12T21:05:49.130Z,67.40
2023-05-12T21:08:15.875Z,67.40
2023-05-12T21:10:42.518Z,67.30
2023-05-12T21:13:09.130Z,67.40
2023-05-12T21:15:35.949Z,67.40
2023-05-12T21:18:02.620Z,67.40
2023-05-12T21:20:29.418Z,67.30
2023-05-12T21:22:56.924Z,67.30
2023-05-12T21:25:23.845Z,68.10
2023-05-12T21:27:50.494Z,67.40
2023-05-12T21:30:17.120Z,67.40
2023-05-12T21:32:44.162Z,67.30
2023-05-12T21:35:11.148Z,67.30
2023-05-12T21:37:37.919Z,67.40
2023-05-12T21:40:05.498Z,67.30
2023-05-12T21:42:32.113Z,67.30
2023-05-12T21:44:58.815Z,67.30
2023-05-12T21:47:25.484Z,67.30
2023-05-12T21:49:56.038Z,67.30
2023-05-12T21:52:23.123Z,67.30
2023-05-12T21:54:49.768Z,67.30
2023-05-12T21:57:16.523Z,67.40
2023-05-12T21:59:43.145Z,67.30
2023-05-12T22:02:09.885Z,67.40
2023-05-12T22:04:36.530Z,67.30
2023-05-12T22:07:03.228Z,67.30
2023-05-12T22:09:31.256Z,67.30
2023-05-12T22:11:57.988Z,67.30
2023-05-12T22:14:24.805Z,67.30
2023-05-12T22:16:51.595Z,67.30
2023-05-12T22:19:18.329Z,67.30
2023-05-12T22:21:45.596Z,67.30
2023-05-12T22:24:12.254Z,67.30
2023-05-12T22:26:38.893Z,67.30
2023-05-12T22:29:05.559Z,67.30
2023-05-12T22:31:33.342Z,67.70
2023-05-12T22:34:00.030Z,67.20
2023-05-12T22:36:27.161Z,67.30
2023-05-12T22:38:53.843Z,67.30
2023-05-12T22:41:20.581Z,67.20
2023-05-12T22:43:47.179Z,67.20
2023-05-12T22:46:13.764Z,67.20
2023-05-12T22:48:40.421Z,67.20
2023-05-12T22:51:07.086Z,67.20
2023-05-12T22:53:36.009Z,67.20
2023-05-12T22:56:03.491Z,67.20
2023-05-12T22:58:30.219Z,67.20
2023-05-12T23:00:56.866Z,67.20
2023-05-12T23:03:23.858Z,67.20
2023-05-12T23:05:50.537Z,67.20
2023-05-12T23:08:17.235Z,67.20
2023-05-12T23:10:44.154Z,67.20
2023-05-12T23:13:10.788Z,67.30
2023-05-12T23:15:37.355Z,67.20
2023-05-12T23:18:04.090Z,67.10
2023-05-12T23:20:31.725Z,67.10
2023-05-12T23:22:58.376Z,67.10
2023-05-12T23:25:25.365Z,67.10
2023-05-12T23:27:52.012Z,67.10
2023-05-12T23:30:18.855Z,67.10
2023-05-12T23:32:45.755Z,67.10
2023-05-12T23:35:12.421Z,67.10
2023-05-12T23:37:38.999Z,67.10
2023-05-12T23:40:06.994Z,67.10
2023-05-12T23:42:33.565Z,67.10
2023-05-12T23:45:00.186Z,67.10
2023-05-12T23:47:26.800Z,67.00
2023-05-12T23:49:53.532Z,67.00
2023-05-12T23:52:20.148Z,67.00
2023-05-12T23:54:46.742Z,66.90
2023-05-12T23:57:13.313Z,67.00
2023-05-12T23:59:39.879Z,67.00
